Time;durP1;ratioP1;P1;durP2;ratioP2;P2;SDS_P1;SDS_P2;PMS_P1;PMS_P2;Temp;Humidity;BMP_temperature;BMP_pressure;BME280_temperature;BME280_humidity;BME280_pressure;Samples;Min_cycle;Max_cycle;Signal;HPM_P1;HPM_P2
2022/04/11 00:00:05;;;;;;;11.52;6.18;;;3.90;99.90;;;;;;5012273;28;20534;-68
2022/04/11 00:02:31;;;;;;;13.30;6.35;;;3.90;99.90;;;;;;5008983;28;20042;-71
2022/04/11 00:04:57;;;;;;;9.52;5.70;;;3.80;99.90;;;;;;5011800;28;20405;-72
2022/04/11 00:07:23;;;;;;;14.07;6.78;;;3.80;99.90;;;;;;5011746;28;20026;-70
2022/04/11 00:09:48;;;;;;;8.80;5.07;;;3.80;99.90;;;;;;5012051;28;20076;-71
2022/04/11 00:12:14;;;;;;;9.50;5.85;;;3.80;99.90;;;;;;5011282;28;20068;-72
2022/04/11 00:14:40;;;;;;;11.05;6.10;;;3.80;99.90;;;;;;5012023;28;20457;-72
2022/04/11 00:17:06;;;;;;;9.68;5.20;;;3.80;99.90;;;;;;5011926;28;20026;-72
2022/04/11 00:19:32;;;;;;;11.43;5.82;;;3.80;99.90;;;;;;5011790;28;20022;-71
2022/04/11 00:21:58;;;;;;;10.52;6.07;;;3.80;99.90;;;;;;5011228;28;20392;-73
2022/04/11 00:24:23;;;;;;;11.55;6.03;;;3.70;99.90;;;;;;5010027;28;20022;-70
2022/04/11 00:26:49;;;;;;;9.57;5.93;;;3.80;99.90;;;;;;5009153;28;20037;-71
2022/04/11 00:29:15;;;;;;;12.02;6.25;;;3.70;99.90;;;;;;5010855;28;20025;-72
2022/04/11 00:31:41;;;;;;;10.20;5.90;;;3.70;99.90;;;;;;5010355;28;20476;-73
2022/04/11 00:34:07;;;;;;;10.80;6.35;;;3.70;99.90;;;;;;5010515;28;20018;-73
2022/04/11 00:36:33;;;;;;;15.27;6.60;;;3.60;99.90;;;;;;5026333;28;20121;-72
2022/04/11 00:38:59;;;;;;;13.50;6.05;;;3.50;99.90;;;;;;5026667;28;20485;-72
2022/04/11 00:41:25;;;;;;;11.07;5.63;;;3.50;99.90;;;;;;5011415;28;20056;-73
2022/04/11 00:43:51;;;;;;;13.18;6.65;;;3.40;99.90;;;;;;5011561;28;20061;-73
2022/04/11 00:46:17;;;;;;;12.70;6.57;;;3.40;99.90;;;;;;5024846;28;20067;-72
2022/04/11 00:48:43;;;;;;;11.18;6.63;;;3.30;99.90;;;;;;5010537;28;20026;-73
2022/04/11 00:51:19;;;;;;;12.13;6.07;;;3.30;99.90;;;;;;5008213;28;20046;-73
2022/04/11 00:53:46;;;;;;;11.07;6.78;;;3.30;99.90;;;;;;5024618;28;20033;-72
2022/04/11 00:56:16;;;;;;;11.25;6.22;;;3.30;99.90;;;;;;5007964;28;20065;-72
2022/04/11 00:58:42;;;;;;;11.88;5.70;;;3.30;99.90;;;;;;5002795;28;20034;-66
2022/04/11 01:01:09;;;;;;;15.20;5.95;;;3.20;99.90;;;;;;5006129;28;20488;-71
2022/04/11 01:03:35;;;;;;;10.73;5.95;;;3.20;99.90;;;;;;5004997;28;20501;-72
2022/04/11 01:06:03;;;;;;;10.38;6.35;;;3.20;99.90;;;;;;5026229;28;20046;-71
2022/04/11 01:08:31;;;;;;;8.02;5.05;;;3.20;99.90;;;;;;5011007;28;20029;-71
2022/04/11 01:10:57;;;;;;;12.63;6.43;;;3.20;99.90;;;;;;5009593;28;20025;-72
2022/04/11 01:13:23;;;;;;;10.13;5.53;;;3.20;99.90;;;;;;5011046;28;20057;-73
2022/04/11 01:15:57;;;;;;;12.55;6.30;;;3.10;99.90;;;;;;5009763;28;20480;-74
2022/04/11 01:18:24;;;;;;;10.95;5.97;;;3.20;99.90;;;;;;5011108;28;20029;-73
2022/04/11 01:20:50;;;;;;;10.48;5.35;;;3.10;99.90;;;;;;5010692;28;20030;-73
2022/04/11 01:23:17;;;;;;;8.82;5.53;;;3.10;99.90;;;;;;5025115;28;20030;-73
2022/04/11 01:25:49;;;;;;;10.20;5.85;;;3.10;99.90;;;;;;5009628;28;20026;-72
2022/04/11 01:28:15;;;;;;;9.95;5.28;;;3.10;99.90;;;;;;5026188;28;20026;-71
2022/04/11 01:30:41;;;;;;;12.95;6.38;;;3.10;99.90;;;;;;5011040;28;20073;-72
2022/04/11 01:33:17;;;;;;;14.57;5.80;;;3.10;99.90;;;;;;5010837;28;20065;-73
2022/04/11 01:35:43;;;;;;;9.77;5.40;;;3.10;99.90;;;;;;5010682;28;20026;-73
2022/04/11 01:38:10;;;;;;;11.75;5.90;;;3.10;99.90;;;;;;5025760;28;20049;-72
2022/04/11 01:40:36;;;;;;;11.95;6.50;;;3.10;99.90;;;;;;5026306;28;20030;-72
2022/04/11 01:43:02;;;;;;;9.60;5.22;;;3.10;99.90;;;;;;5025744;28;20587;-72
2022/04/11 01:45:29;;;;;;;11.32;6.03;;;3.10;99.90;;;;;;5009511;28;20029;-73
2022/04/11 01:47:55;;;;;;;10.30;4.93;;;3.10;99.90;;;;;;5009175;28;20113;-72
2022/04/11 01:50:21;;;;;;;13.75;5.30;;;3.10;99.90;;;;;;5010449;28;20129;-73
2022/04/11 01:52:47;;;;;;;8.63;4.90;;;3.10;99.90;;;;;;5009077;28;20041;-72
2022/04/11 01:55:13;;;;;;;9.75;5.80;;;3.10;99.90;;;;;;5008903;28;20032;-73
2022/04/11 01:57:39;;;;;;;8.95;4.53;;;3.10;99.90;;;;;;5009284;28;20038;-73
2022/04/11 02:00:06;;;;;;;10.57;5.32;;;3.00;99.90;;;;;;5009306;28;20018;-72
2022/04/11 02:02:41;;;;;;;9.98;5.65;;;2.90;99.90;;;;;;5009498;28;20049;-73
2022/04/11 02:05:08;;;;;;;8.10;4.75;;;2.80;99.90;;;;;;5009727;28;20029;-73
2022/04/11 02:07:34;;;;;;;10.80;5.47;;;2.80;99.90;;;;;;5017245;28;20026;-72
2022/04/11 02:10:00;;;;;;;9.23;5.70;;;2.70;99.90;;;;;;5026593;28;20028;-73
2022/04/11 02:12:26;;;;;;;9.25;4.68;;;2.80;99.90;;;;;;5012957;28;20031;-73
2022/04/11 02:14:52;;;;;;;8.50;4.90;;;2.70;99.90;;;;;;5028820;28;20030;-72
2022/04/11 02:17:18;;;;;;;8.10;4.72;;;2.70;99.90;;;;;;5012356;28;20028;-73
2022/04/11 02:19:44;;;;;;;7.07;4.50;;;2.70;99.90;;;;;;5012665;28;20022;-73
2022/04/11 02:22:10;;;;;;;9.20;4.70;;;2.80;99.90;;;;;;5010220;28;20120;-72
2022/04/11 02:24:36;;;;;;;9.57;4.78;;;2.70;99.90;;;;;;5013796;28;20083;-71
2022/04/11 02:27:02;;;;;;;10.07;4.88;;;2.70;99.90;;;;;;5029227;28;20117;-70
2022/04/11 02:29:28;;;;;;;11.85;4.63;;;2.80;99.90;;;;;;5013832;28;20034;-71
2022/04/11 02:31:54;;;;;;;8.68;4.68;;;2.80;99.90;;;;;;5012247;28;20046;-72
2022/04/11 02:34:20;;;;;;;11.68;4.75;;;2.80;99.90;;;;;;5013528;28;20443;-71
2022/04/11 02:36:46;;;;;;;8.52;4.00;;;2.80;99.90;;;;;;5028577;28;20381;-73
2022/04/11 02:39:12;;;;;;;9.25;4.88;;;2.80;99.90;;;;;;5013528;28;20054;-71
2022/04/11 02:41:38;;;;;;;7.05;4.10;;;2.80;99.90;;;;;;5013972;28;20014;-73
2022/04/11 02:44:04;;;;;;;7.45;4.53;;;2.80;99.90;;;;;;5028451;28;20069;-72
2022/04/11 02:46:31;;;;;;;12.60;5.00;;;2.70;99.90;;;;;;5011103;28;20476;-72
2022/04/11 02:48:57;;;;;;;10.82;4.15;;;2.60;99.90;;;;;;5011971;28;20040;-71
2022/04/11 02:51:30;;;;;;;10.88;4.65;;;2.60;99.90;;;;;;5011702;28;20040;-74
2022/04/11 02:54:07;;;;;;;8.23;4.20;;;2.70;99.90;;;;;;5010102;28;20038;-73
2022/04/11 02:56:36;;;;;;;6.93;4.25;;;2.70;99.90;;;;;;5026823;28;20034;-72
2022/04/11 02:59:03;;;;;;;7.22;4.13;;;2.60;99.90;;;;;;5028271;28;20129;-71
2022/04/11 03:01:39;;;;;;;10.93;5.05;;;2.60;99.90;;;;;;5011451;28;20030;-72
2022/04/11 03:04:09;;;;;;;8.85;5.20;;;2.60;99.90;;;;;;5010591;28;20030;-71
2022/04/11 03:06:55;;;;;;;9.38;4.63;;;2.60;99.90;;;;;;5026920;28;20531;-72
2022/04/11 03:09:22;;;;;;;10.68;5.50;;;2.60;99.90;;;;;;5010006;28;20109;-71
2022/04/11 03:11:48;;;;;;;9.70;5.20;;;2.60;99.90;;;;;;5028413;28;20017;-71
2022/04/11 03:14:15;;;;;;;9.80;5.18;;;2.60;99.90;;;;;;5011894;28;20033;-71
2022/04/11 03:16:41;;;;;;;7.78;3.95;;;2.60;99.90;;;;;;5009976;28;20026;-72
2022/04/11 03:19:09;;;;;;;7.68;4.97;;;2.50;99.90;;;;;;5009765;28;20036;-72
2022/04/11 03:21:35;;;;;;;8.77;5.15;;;2.50;99.90;;;;;;5026891;28;20029;-71
2022/04/11 03:24:07;;;;;;;11.18;5.60;;;2.50;99.90;;;;;;5027607;28;20113;-71
2022/04/11 03:26:33;;;;;;;14.77;5.30;;;2.50;99.90;;;;;;5028223;28;20108;-71
2022/04/11 03:29:00;;;;;;;12.88;5.57;;;2.50;99.90;;;;;;5027664;28;20033;-71
2022/04/11 03:31:26;;;;;;;10.00;4.60;;;2.50;99.90;;;;;;5026986;28;20030;-71
2022/04/11 03:33:52;;;;;;;10.30;5.15;;;2.50;99.90;;;;;;5012349;28;20030;-71
2022/04/11 03:36:19;;;;;;;12.15;5.22;;;2.50;99.90;;;;;;5027712;28;20088;-72
2022/04/11 03:38:46;;;;;;;11.48;5.57;;;2.50;99.90;;;;;;5027575;28;20033;-72
2022/04/11 03:41:15;;;;;;;11.13;5.63;;;2.40;99.90;;;;;;5012334;28;20080;-72
2022/04/11 03:43:41;;;;;;;14.02;5.53;;;2.50;99.90;;;;;;5025808;28;20034;-69
2022/04/11 03:46:08;;;;;;;16.73;5.90;;;2.50;99.90;;;;;;5026733;28;20022;-71
2022/04/11 03:48:35;;;;;;;8.63;5.22;;;2.40;99.90;;;;;;5010191;28;20510;-70
2022/04/11 03:51:03;;;;;;;12.18;5.50;;;2.40;99.90;;;;;;5010312;28;20041;-71
2022/04/11 03:53:29;;;;;;;14.23;6.18;;;2.40;99.90;;;;;;5010864;28;20049;-71
2022/04/11 03:55:57;;;;;;;11.15;6.10;;;2.40;99.90;;;;;;5010781;28;20030;-71
2022/04/11 03:58:24;;;;;;;22.50;6.70;;;2.40;99.90;;;;;;5027147;28;20038;-71
2022/04/11 04:00:51;;;;;;;15.05;6.45;;;2.40;99.90;;;;;;5010782;28;20358;-72
2022/04/11 04:03:25;;;;;;;12.70;7.00;;;2.40;99.90;;;;;;5010037;28;20041;-72
2022/04/11 04:05:57;;;;;;;14.60;7.57;;;2.40;99.90;;;;;;5027100;28;20030;-71
2022/04/11 04:08:27;;;;;;;17.83;8.50;;;2.50;99.90;;;;;;5010456;28;20387;-72
2022/04/11 04:11:04;;;;;;;18.00;7.65;;;2.50;99.90;;;;;;5025301;28;20029;-73
2022/04/11 04:13:33;;;;;;;14.32;7.70;;;2.60;99.90;;;;;;5025189;28;20021;-72
2022/04/11 04:15:59;;;;;;;13.70;7.22;;;2.60;99.90;;;;;;5025725;28;20039;-72
2022/04/11 04:18:27;;;;;;;17.60;8.13;;;2.70;99.90;;;;;;5025830;28;20030;-73
2022/04/11 04:20:56;;;;;;;11.55;6.53;;;2.70;99.90;;;;;;5025952;28;20435;-72
2022/04/11 04:23:25;;;;;;;12.57;6.72;;;3.20;99.90;;;;;;5009110;28;20038;-72
2022/04/11 04:25:51;;;;;;;15.15;5.95;;;4.00;99.90;;;;;;5024256;28;20037;-74
2022/04/11 04:28:17;;;;;;;14.95;7.30;;;4.70;99.90;;;;;;4991572;28;20053;-73
2022/04/11 04:30:45;;;;;;;18.17;8.00;;;5.30;99.90;;;;;;5011439;28;20053;-74
2022/04/11 04:33:14;;;;;;;11.45;6.05;;;5.80;99.90;;;;;;5025726;28;20168;-75
2022/04/11 04:35:43;;;;;;;14.38;6.63;;;6.30;99.90;;;;;;5010158;28;20033;-72
2022/04/11 04:38:10;;;;;;;10.35;5.75;;;6.30;99.90;;;;;;5025291;28;20030;-73
2022/04/11 04:40:45;;;;;;;8.60;5.68;;;5.60;99.90;;;;;;5011805;28;20026;-71
2022/04/11 04:43:13;;;;;;;10.80;6.28;;;6.60;99.90;;;;;;5009233;28;20038;-73
2022/04/11 04:45:39;;;;;;;9.23;5.80;;;7.40;98.00;;;;;;5026242;28;20020;-74
2022/04/11 04:48:25;;;;;;;14.35;7.50;;;7.70;97.20;;;;;;5010723;28;20045;-73
2022/04/11 04:50:51;;;;;;;14.55;8.00;;;7.90;93.80;;;;;;5008672;28;20543;-73
2022/04/11 04:53:18;;;;;;;9.95;7.45;;;9.00;92.70;;;;;;5010307;28;20030;-72
2022/04/11 04:55:46;;;;;;;12.35;7.55;;;8.80;90.50;;;;;;5025776;28;20049;-72
2022/04/11 04:58:13;;;;;;;8.32;5.70;;;9.50;89.50;;;;;;5025476;28;20065;-73
2022/04/11 05:00:39;;;;;;;8.43;5.45;;;9.60;86.00;;;;;;5009409;28;20109;-71
2022/04/11 05:03:06;;;;;;;8.30;5.05;;;9.70;84.10;;;;;;5025773;28;20435;-73
2022/04/11 05:05:35;;;;;;;8.40;4.88;;;10.00;83.80;;;;;;5025854;28;20033;-74
2022/04/11 05:08:01;;;;;;;7.97;5.10;;;10.10;83.00;;;;;;5025009;28;20022;-75
2022/04/11 05:10:31;;;;;;;6.60;4.97;;;10.40;82.10;;;;;;5008932;28;20033;-74
2022/04/11 05:12:56;;;;;;;7.68;3.92;;;10.70;80.00;;;;;;5009978;28;20022;-73
2022/04/11 05:15:23;;;;;;;9.75;4.95;;;11.00;79.90;;;;;;5009635;28;20025;-73
2022/04/11 05:17:55;;;;;;;7.00;4.68;;;9.50;80.60;;;;;;5025906;28;20036;-73
2022/04/11 05:20:23;;;;;;;7.30;4.53;;;8.70;85.60;;;;;;5017468;28;20691;-72
2022/04/11 05:22:49;;;;;;;10.65;5.13;;;8.00;90.00;;;;;;5024998;28;20037;-73
2022/04/11 05:25:16;;;;;;;10.75;5.00;;;7.70;93.10;;;;;;5009503;28;20641;-73
2022/04/11 05:27:42;;;;;;;10.63;4.32;;;7.60;95.30;;;;;;5023680;28;20428;-74
2022/04/11 05:30:10;;;;;;;8.32;4.72;;;7.20;97.40;;;;;;5025390;28;20030;-74
2022/04/11 05:32:37;;;;;;;16.42;5.25;;;7.20;97.80;;;;;;5010262;28;20113;-73
2022/04/11 05:35:04;;;;;;;9.38;5.38;;;7.40;99.70;;;;;;5025678;28;20383;-74
2022/04/11 05:37:38;;;;;;;12.80;5.57;;;7.20;98.70;;;;;;5009210;28;20076;-76
2022/04/11 05:40:05;;;;;;;10.45;5.10;;;7.10;99.40;;;;;;5007485;28;20459;-73
2022/04/11 05:42:32;;;;;;;10.85;4.93;;;7.10;99.70;;;;;;5009926;28;20111;-73
2022/04/11 05:44:58;;;;;;;8.65;4.90;;;7.10;99.50;;;;;;5026281;28;20105;-70
2022/04/11 05:47:24;;;;;;;9.63;5.18;;;7.20;99.90;;;;;;5014247;28;20109;-73
2022/04/11 05:49:54;;;;;;;11.07;5.82;;;7.20;99.90;;;;;;5012712;28;20156;-73
2022/04/11 05:52:21;;;;;;;11.38;5.43;;;7.40;99.90;;;;;;5014085;28;20177;-74
2022/04/11 05:54:47;;;;;;;7.45;4.30;;;7.40;99.80;;;;;;5013408;28;20034;-73
2022/04/11 05:57:14;;;;;;;15.35;5.28;;;7.60;99.90;;;;;;5012082;28;20028;-73
2022/04/11 05:59:41;;;;;;;9.38;5.07;;;7.80;99.20;;;;;;5027695;28;20026;-73
2022/04/11 06:02:10;;;;;;;9.65;5.43;;;7.60;99.90;;;;;;5012218;28;20034;-73
2022/04/11 06:04:38;;;;;;;9.95;5.10;;;7.90;99.90;;;;;;5011222;28;20029;-71
2022/04/11 06:07:05;;;;;;;12.77;5.72;;;7.80;98.30;;;;;;5012114;28;20034;-72
2022/04/11 06:09:32;;;;;;;11.18;6.18;;;7.80;96.40;;;;;;5012472;28;20022;-74
2022/04/11 06:11:59;;;;;;;9.63;4.78;;;8.00;99.90;;;;;;5029248;28;20121;-72
2022/04/11 06:14:25;;;;;;;7.47;3.97;;;7.90;94.60;;;;;;5013620;28;20020;-73
2022/04/11 06:16:51;;;;;;;9.15;4.65;;;7.90;96.50;;;;;;5012550;28;20032;-73
2022/04/11 06:19:17;;;;;;;11.32;4.55;;;7.90;97.60;;;;;;5012611;28;20022;-72
2022/04/11 06:21:44;;;;;;;8.82;3.92;;;8.10;97.10;;;;;;5013186;28;20029;-73
2022/04/11 06:24:10;;;;;;;7.43;4.20;;;8.10;95.90;;;;;;5028885;28;20045;-73
2022/04/11 06:26:35;;;;;;;7.32;3.20;;;8.00;97.20;;;;;;5013890;28;20014;-73
2022/04/11 06:29:01;;;;;;;6.72;3.67;;;8.20;97.40;;;;;;5011817;28;20732;-72
2022/04/11 06:31:27;;;;;;;6.55;3.35;;;8.40;99.50;;;;;;5012233;28;20021;-73
2022/04/11 06:33:59;;;;;;;6.43;3.50;;;8.50;95.00;;;;;;5010809;28;20071;-73
2022/04/11 06:36:29;;;;;;;9.68;4.50;;;8.40;93.80;;;;;;5012409;28;20054;-73
2022/04/11 06:38:55;;;;;;;7.35;3.88;;;8.40;93.00;;;;;;5013310;28;20022;-73
2022/04/11 06:41:21;;;;;;;8.73;4.45;;;8.60;93.60;;;;;;5020585;28;20022;-72
2022/04/11 06:43:47;;;;;;;10.10;4.20;;;8.80;93.00;;;;;;5011896;28;20730;-73
2022/04/11 06:46:31;;;;;;;;;;;8.90;92.10;;;;;;5012218;28;20387;-73
2022/04/11 06:48:56;;;;;;;10.20;4.00;;;8.90;91.00;;;;;;5011435;28;19972;-71
2022/04/11 06:51:23;;;;;;;6.43;3.40;;;8.90;91.70;;;;;;5011798;28;20041;-69
2022/04/11 06:53:50;;;;;;;5.55;2.83;;;9.20;91.60;;;;;;5012804;28;20034;-73
2022/04/11 06:56:15;;;;;;;5.35;3.00;;;9.20;89.40;;;;;;5011892;28;20101;-72
2022/04/11 06:58:41;;;;;;;5.10;2.67;;;9.20;91.20;;;;;;5012891;28;20490;-73
2022/04/11 07:01:07;;;;;;;5.85;3.35;;;9.50;91.70;;;;;;5012338;28;20435;-73
2022/04/11 07:03:33;;;;;;;9.10;4.57;;;9.60;89.80;;;;;;5012518;28;20041;-72
2022/04/11 07:05:59;;;;;;;4.85;2.40;;;9.80;90.30;;;;;;5010575;28;20018;-73
2022/04/11 07:08:25;;;;;;;7.60;3.45;;;9.70;85.50;;;;;;5011984;28;20030;-72
2022/04/11 07:10:51;;;;;;;8.20;3.20;;;9.80;86.30;;;;;;5008245;28;20484;-73
2022/04/11 07:13:17;;;;;;;5.03;2.42;;;9.90;86.00;;;;;;5007462;28;20026;-72
2022/04/11 07:15:42;;;;;;;2.85;2.15;;;9.70;83.70;;;;;;5010609;28;20061;-72
2022/04/11 07:18:08;;;;;;;4.47;2.63;;;9.80;83.20;;;;;;5009195;28;20048;-73
2022/04/11 07:20:35;;;;;;;3.00;2.17;;;10.00;84.20;;;;;;5010593;28;20524;-73
2022/04/11 07:23:00;;;;;;;4.55;2.17;;;10.00;83.00;;;;;;5011468;28;20023;-73
2022/04/11 07:25:28;;;;;;;2.67;1.95;;;10.10;81.50;;;;;;5012202;28;20027;-73
2022/04/11 07:27:55;;;;;;;5.72;2.05;;;10.30;83.60;;;;;;5011570;28;20034;-71
2022/04/11 07:30:21;;;;;;;3.65;2.63;;;10.30;82.40;;;;;;5012329;28;20014;-72
2022/04/11 07:32:47;;;;;;;3.67;2.03;;;10.30;81.40;;;;;;5012226;28;20088;-73
2022/04/11 07:35:13;;;;;;;4.70;2.15;;;10.30;80.60;;;;;;5011900;28;20024;-73
2022/04/11 07:37:39;;;;;;;3.45;2.50;;;10.60;80.60;;;;;;5012350;28;20527;-73
2022/04/11 07:40:06;;;;;;;3.90;1.80;;;10.60;83.00;;;;;;5008714;28;20097;-74
2022/04/11 07:42:32;;;;;;;3.05;1.80;;;10.60;77.80;;;;;;5011544;28;20033;-70
2022/04/11 07:44:58;;;;;;;3.63;1.70;;;10.50;78.30;;;;;;5009931;28;20472;-72
2022/04/11 07:47:23;;;;;;;2.83;2.05;;;10.60;78.00;;;;;;5011505;28;20053;-72
2022/04/11 07:49:49;;;;;;;4.95;2.67;;;10.60;79.90;;;;;;5011228;28;20045;-72
2022/04/11 07:52:15;;;;;;;4.13;2.03;;;10.90;82.40;;;;;;5011490;28;20030;-73
2022/04/11 07:54:42;;;;;;;3.20;2.08;;;11.00;78.50;;;;;;5011258;28;20073;-73
2022/04/11 07:57:09;;;;;;;2.47;2.10;;;11.10;77.70;;;;;;5009933;28;20109;-72
2022/04/11 07:59:35;;;;;;;3.10;1.83;;;10.90;74.60;;;;;;5011586;28;20447;-71
2022/04/11 08:02:01;;;;;;;2.35;1.95;;;10.90;76.30;;;;;;5009222;28;20120;-73
2022/04/11 08:04:27;;;;;;;4.47;2.53;;;11.00;78.80;;;;;;5010551;28;20113;-69
2022/04/11 08:06:53;;;;;;;3.35;2.03;;;11.00;76.30;;;;;;5011824;28;20104;-71
2022/04/11 08:09:19;;;;;;;3.95;2.30;;;11.10;78.60;;;;;;5010333;28;20018;-71
2022/04/11 08:11:44;;;;;;;4.97;1.83;;;11.00;75.20;;;;;;5010999;28;20041;-73
2022/04/11 08:14:10;;;;;;;4.78;2.60;;;10.90;76.00;;;;;;5010509;28;20468;-74
2022/04/11 08:16:37;;;;;;;5.50;2.20;;;11.00;76.20;;;;;;5010621;28;20022;-73
2022/04/11 08:19:03;;;;;;;2.50;2.17;;;11.10;77.30;;;;;;5010435;28;20049;-74
2022/04/11 08:21:28;;;;;;;4.72;2.38;;;11.20;77.10;;;;;;5010793;28;20041;-72
2022/04/11 08:23:54;;;;;;;5.03;2.90;;;11.50;80.40;;;;;;5008373;28;20415;-70
2022/04/11 08:26:20;;;;;;;6.97;3.90;;;11.70;76.70;;;;;;5009741;28;20042;-73
2022/04/11 08:28:46;;;;;;;7.20;2.80;;;11.70;79.80;;;;;;5010079;28;20691;-72
2022/04/11 08:31:12;;;;;;;5.95;2.83;;;11.70;77.70;;;;;;5009575;28;20020;-73
2022/04/11 08:33:38;;;;;;;4.18;2.25;;;11.90;77.90;;;;;;5009669;28;20399;-73
2022/04/11 08:36:04;;;;;;;3.55;2.38;;;11.90;77.60;;;;;;5009919;28;20121;-73
2022/04/11 08:38:30;;;;;;;5.10;2.60;;;12.10;79.20;;;;;;5009195;28;20468;-71
2022/04/11 08:40:57;;;;;;;11.93;4.25;;;12.30;74.70;;;;;;5010367;28;20026;-74
2022/04/11 08:43:25;;;;;;;6.20;2.70;;;12.20;74.60;;;;;;5009930;28;20084;-71
2022/04/11 08:45:57;;;;;;;6.25;2.83;;;12.20;73.50;;;;;;5009877;28;20026;-73
2022/04/11 08:48:23;;;;;;;4.60;2.28;;;12.10;71.30;;;;;;5010113;28;20041;-71
2022/04/11 08:50:49;;;;;;;4.32;2.53;;;12.10;73.20;;;;;;5010019;28;20539;-74
2022/04/11 08:53:21;;;;;;;3.67;2.10;;;12.40;76.50;;;;;;5009877;28;20080;-73
2022/04/11 08:55:48;;;;;;;4.38;2.05;;;12.70;73.40;;;;;;5008647;28;20493;-74
2022/04/11 08:58:14;;;;;;;2.50;1.83;;;12.50;68.40;;;;;;5010208;28;20052;-71
2022/04/11 09:00:40;;;;;;;3.08;1.92;;;12.20;73.10;;;;;;5009525;28;20026;-75
2022/04/11 09:03:07;;;;;;;4.10;1.60;;;12.50;75.00;;;;;;5009631;28;20096;-72
2022/04/11 09:05:34;;;;;;;3.90;2.03;;;12.40;68.10;;;;;;5010062;28;20468;-73
2022/04/11 09:08:00;;;;;;;4.43;1.80;;;12.30;70.50;;;;;;5010164;28;20069;-74
2022/04/11 09:10:32;;;;;;;3.00;1.55;;;11.90;70.20;;;;;;5010412;28;20033;-72
2022/04/11 09:13:01;;;;;;;4.82;2.30;;;11.50;68.70;;;;;;5010611;28;20040;-74
2022/04/11 09:15:28;;;;;;;5.65;2.72;;;11.70;67.80;;;;;;5009485;28;20061;-73
2022/04/11 09:17:57;;;;;;;8.02;2.15;;;12.20;73.00;;;;;;5010198;28;20049;-74
2022/04/11 09:20:27;;;;;;;3.75;2.03;;;11.80;72.00;;;;;;5009330;28;20337;-72
2022/04/11 09:22:54;;;;;;;5.65;2.65;;;11.80;69.10;;;;;;5008762;28;20042;-73
2022/04/11 09:25:21;;;;;;;5.78;3.17;;;12.30;76.50;;;;;;5008171;28;20030;-73
2022/04/11 09:27:47;;;;;;;4.85;2.60;;;12.70;73.70;;;;;;5009726;28;20420;-74
2022/04/11 09:30:23;;;;;;;5.63;2.38;;;12.70;74.30;;;;;;5010387;28;20021;-72
2022/04/11 09:32:58;;;;;;;6.72;2.75;;;13.00;72.70;;;;;;5009328;28;20100;-71
2022/04/11 09:35:26;;;;;;;4.22;2.60;;;13.20;75.10;;;;;;5006907;28;20030;-73
2022/04/11 09:38:14;;;;;;;4.43;2.65;;;13.20;73.20;;;;;;5003697;28;20017;-73
2022/04/11 09:40:44;;;;;;;5.95;2.92;;;13.10;71.40;;;;;;5006443;28;20366;-72
2022/04/11 09:43:13;;;;;;;6.65;2.75;;;13.10;72.00;;;;;;5007441;28;20038;-72
2022/04/11 09:45:44;;;;;;;3.33;1.88;;;12.70;72.80;;;;;;5007094;28;20025;-72
2022/04/11 09:48:11;;;;;;;9.90;3.95;;;12.60;67.70;;;;;;5006293;28;20500;-73
2022/04/11 09:50:37;;;;;;;11.18;4.70;;;12.70;71.80;;;;;;5007946;28;20112;-73
2022/04/11 09:53:23;;;;;;;5.03;2.83;;;12.90;69.80;;;;;;5008697;28;20083;-72
2022/04/11 09:55:51;;;;;;;3.78;2.35;;;13.40;66.80;;;;;;5008011;28;20088;-72
2022/04/11 09:58:19;;;;;;;5.30;2.30;;;13.10;67.60;;;;;;5007562;28;20018;-74
2022/04/11 10:00:45;;;;;;;4.20;2.53;;;12.80;69.30;;;;;;5009873;28;20040;-72
2022/04/11 10:03:11;;;;;;;6.93;2.08;;;12.60;69.30;;;;;;5010353;28;20485;-72
2022/04/11 10:05:40;;;;;;;7.25;2.28;;;12.60;68.30;;;;;;5005675;28;20473;-73
2022/04/11 10:08:09;;;;;;;5.80;2.42;;;12.10;68.50;;;;;;5006585;28;20032;-73
2022/04/11 10:10:38;;;;;;;6.10;2.58;;;11.90;68.70;;;;;;5009495;28;20025;-73
2022/04/11 10:13:06;;;;;;;6.57;3.10;;;11.80;69.60;;;;;;5009105;28;20025;-72
2022/04/11 10:15:35;;;;;;;4.28;2.60;;;11.70;71.30;;;;;;5009840;28;20089;-72
2022/04/11 10:18:01;;;;;;;7.82;2.90;;;11.90;71.70;;;;;;5008645;28;20410;-73
2022/04/11 10:20:30;;;;;;;4.25;2.75;;;12.10;71.70;;;;;;5010058;28;20547;-74
2022/04/11 10:23:18;;;;;;;7.47;2.70;;;12.40;69.60;;;;;;5008676;28;20395;-72
2022/04/11 10:25:46;;;;;;;4.43;2.78;;;12.80;72.10;;;;;;5006414;28;20387;-73
2022/04/11 10:28:20;;;;;;;4.95;2.50;;;12.50;69.20;;;;;;5008182;28;20512;-72
2022/04/11 10:31:04;;;;;;;5.03;2.03;;;12.80;68.10;;;;;;5010073;28;20032;-69
2022/04/11 10:33:50;;;;;;;2.33;1.90;;;12.90;70.60;;;;;;5013071;28;20014;-73
2022/04/11 10:36:38;;;;;;;3.08;2.10;;;12.50;67.10;;;;;;5012854;28;20018;-71
2022/04/11 10:39:16;;;;;;;3.95;1.85;;;12.40;65.00;;;;;;5011355;28;20472;-71
2022/04/11 10:41:54;;;;;;;4.50;2.40;;;12.40;67.90;;;;;;5008098;28;20464;-72
2022/04/11 10:44:41;;;;;;;4.40;2.13;;;12.40;66.10;;;;;;5007349;28;20446;-70
2022/04/11 10:47:10;;;;;;;5.15;2.67;;;12.10;66.20;;;;;;5002351;28;20157;-72
2022/04/11 10:49:44;;;;;;;4.50;2.08;;;12.30;65.10;;;;;;4994745;28;20038;-70
2022/04/11 10:52:41;;;;;;;4.90;2.88;;;12.50;66.30;;;;;;4998314;28;20479;-71
2022/04/11 10:55:14;;;;;;;5.85;2.58;;;12.70;67.20;;;;;;5013665;28;20058;-69
2022/04/11 10:57:43;;;;;;;3.50;1.83;;;12.80;69.90;;;;;;4996112;28;20022;-68
2022/04/11 11:00:12;;;;;;;3.33;1.77;;;12.80;64.40;;;;;;5001660;28;20108;-71
2022/04/11 11:02:49;;;;;;;6.13;2.53;;;12.60;62.90;;;;;;5009718;28;20038;-72
2022/04/11 11:05:29;;;;;;;6.00;2.65;;;12.60;62.60;;;;;;5012276;28;20030;-73
2022/04/11 11:08:11;;;;;;;6.72;3.80;;;12.60;65.70;;;;;;5011863;28;20034;-71
2022/04/11 11:10:48;;;;;;;3.75;2.45;;;12.60;65.80;;;;;;5011271;28;20026;-73
2022/04/11 11:13:36;;;;;;;4.30;2.35;;;12.80;65.10;;;;;;5011544;28;20104;-66
2022/04/11 11:16:07;;;;;;;9.25;3.63;;;13.30;66.20;;;;;;5011349;28;20096;-66
2022/04/11 11:18:48;;;;;;;6.30;2.28;;;13.20;66.70;;;;;;5012992;28;20029;-66
2022/04/11 11:21:19;;;;;;;5.18;2.28;;;13.00;64.50;;;;;;5011730;28;20033;-72
2022/04/11 11:27:00;;;;;;;3.50;2.10;;;13.10;65.40;;;;;;5009611;28;20084;-73
2022/04/11 11:29:40;;;;;;;3.92;1.80;;;13.00;62.50;;;;;;5010897;28;20029;-68
2022/04/11 11:32:08;;;;;;;5.55;2.35;;;13.00;63.10;;;;;;5010982;28;20079;-69
2022/04/11 11:34:36;;;;;;;7.43;1.92;;;12.70;63.90;;;;;;5011455;28;20022;-73
2022/04/11 11:37:02;;;;;;;2.67;1.50;;;12.60;65.50;;;;;;5012265;28;20033;-73
2022/04/11 11:39:29;;;;;;;6.22;2.08;;;12.70;65.60;;;;;;5011941;28;20014;-72
2022/04/11 11:42:25;;;;;;;5.28;2.67;;;12.60;64.70;;;;;;5011444;28;20170;-71
2022/04/11 11:44:51;;;;;;;4.55;2.53;;;12.60;66.40;;;;;;5011473;28;20045;-72
2022/04/11 11:47:26;;;;;;;5.90;2.00;;;12.60;65.70;;;;;;5011962;28;20026;-71
2022/04/11 11:49:52;;;;;;;2.97;2.33;;;12.70;64.50;;;;;;5011544;28;20485;-70
2022/04/11 11:52:20;;;;;;;5.63;2.08;;;12.80;65.90;;;;;;5001408;28;20039;-73
2022/04/11 11:54:48;;;;;;;3.95;2.50;;;12.70;64.50;;;;;;5001376;28;20049;-71
2022/04/11 11:57:18;;;;;;;7.25;3.17;;;12.60;63.60;;;;;;5011136;28;20468;-73
2022/04/11 12:00:05;;;;;;;3.78;1.95;;;12.70;64.30;;;;;;5011149;28;20034;-73
2022/04/11 12:05:27;;;;;;;3.83;1.77;;;12.50;61.30;;;;;;5010885;28;20014;-72
2022/04/11 12:08:05;;;;;;;5.70;2.33;;;12.50;61.50;;;;;;5011912;28;20029;-67
2022/04/11 12:10:31;;;;;;;2.45;1.90;;;12.60;63.50;;;;;;5011059;28;20097;-73
2022/04/11 12:12:57;;;;;;;5.03;1.75;;;12.70;62.20;;;;;;5012118;28;20109;-73
2022/04/11 12:15:23;;;;;;;3.60;2.38;;;12.50;61.60;;;;;;5011581;28;20105;-72
2022/04/11 12:17:59;;;;;;;2.90;1.92;;;12.50;63.10;;;;;;5011618;28;20098;-72
2022/04/11 12:20:29;;;;;;;4.85;1.63;;;12.50;62.90;;;;;;5008000;28;20361;-73
2022/04/11 12:23:11;;;;;;;3.42;2.13;;;12.60;64.00;;;;;;5007658;28;20037;-73
2022/04/11 12:25:49;;;;;;;5.85;2.60;;;12.50;63.20;;;;;;5006957;28;20137;-74
2022/04/11 12:28:18;;;;;;;4.82;2.05;;;12.60;66.00;;;;;;5008893;28;20388;-73
2022/04/11 12:30:49;;;;;;;2.97;1.75;;;12.90;64.60;;;;;;5024913;28;20018;-71
2022/04/11 12:33:39;;;;;;;3.72;2.10;;;13.30;64.20;;;;;;5006822;28;20034;-71
2022/04/11 12:36:19;;;;;;;4.00;2.13;;;13.70;63.80;;;;;;5010370;28;20026;-72
2022/04/11 12:38:49;;;;;;;4.32;2.25;;;13.50;62.40;;;;;;5010962;28;20033;-71
2022/04/11 12:41:25;;;;;;;9.30;3.17;;;13.40;61.60;;;;;;5010984;28;20026;-69
2022/04/11 12:44:10;;;;;;;3.25;1.60;;;13.30;63.50;;;;;;5010990;28;20103;-71
2022/04/11 12:46:59;;;;;;;4.50;1.67;;;13.00;61.60;;;;;;5001654;28;20060;-70
2022/04/11 12:49:43;;;;;;;4.07;1.73;;;12.80;60.20;;;;;;4999133;28;20077;-72
2022/04/11 12:52:09;;;;;;;3.25;1.92;;;12.80;61.50;;;;;;5010518;28;20030;-71
2022/04/11 12:54:43;;;;;;;3.58;1.95;;;12.80;62.50;;;;;;5004390;28;20032;-70
2022/04/11 12:57:12;;;;;;;4.00;1.73;;;13.00;62.90;;;;;;5004214;28;20121;-69
2022/04/11 12:59:41;;;;;;;14.77;6.38;;;13.00;63.50;;;;;;5008620;28;20092;-71
2022/04/11 13:02:09;;;;;;;50.88;22.60;;;12.90;61.10;;;;;;5008889;28;20455;-71
2022/04/11 13:04:40;;;;;;;4.82;2.30;;;12.90;64.40;;;;;;5022827;28;20026;-72